1AL1 weather

Decatur General Hospital Heliport
Decatur, Alabama, United States

Public forecast

Using degrees Fahrenheit for public forecast. Weather courtesy of forecast.io.

Closest aviation weather report (METAR) to Decatur General Hospital Heliport

Closest report is Pryor Field Regional Airport, 3.9 nm (7.3 km) NNE. Retrieved 2019/10/23 10:53 UTC (32 minutes ago):

KDCU 231053Z AUTO 00000KT 10SM CLR 04/03 A3018 RMK AO2 SLP218 T00390033

Closest aviation forecast (TAF) to Decatur General Hospital Heliport

Closest forecast is Huntsville International Carl T Jones Field, 10.1 nm (18.8 km) ENE. Retrieved 2019/10/23 06:36 UTC (5 hours ago):

TAF KHSV 230535Z 2306/2406 VRB04KT P6SM SKC